Time;durP1;ratioP1;P1;durP2;ratioP2;P2;SDS_P1;SDS_P2;PMS_P1;PMS_P2;Temp;Humidity;BMP_temperature;BMP_pressure;BME280_temperature;BME280_humidity;BME280_pressure;Samples;Min_cycle;Max_cycle;Signal;HPM_P1;HPM_P2
2022/01/12 05:55:40;;;;;;;9.45;4.53;;;;;;;-9.01;79.10;101200.47;1679623;81;21124;-41
2022/01/12 05:58:07;;;;;;;7.10;4.40;;;;;;;-9.03;78.68;101194.38;1739697;81;21148;-46
2022/01/12 06:00:34;;;;;;;9.35;3.70;;;;;;;-9.08;78.27;101196.86;1700985;83;21059;-45
2022/01/12 06:03:01;;;;;;;12.55;5.22;;;;;;;-9.15;77.96;101198.84;1735071;81;21045;-39
2022/01/12 06:05:30;;;;;;;7.58;4.60;;;;;;;-9.18;78.38;101197.66;1698989;83;21545;-39
2022/01/12 06:07:58;;;;;;;10.82;5.20;;;;;;;-9.17;78.34;101196.52;1743362;81;21120;-39
2022/01/12 06:10:25;;;;;;;17.40;5.53;;;;;;;-9.16;78.30;101205.94;1735974;81;21600;-39
2022/01/12 06:12:52;;;;;;;7.75;4.70;;;;;;;-9.15;78.44;101201.38;1729670;81;21828;-39
2022/01/12 06:15:21;;;;;;;8.90;4.75;;;;;;;-9.12;78.27;101210.89;1728430;81;20978;-39
2022/01/12 06:17:48;;;;;;;9.70;3.22;;;;;;;-9.12;78.32;101204.55;1730122;81;21060;-38
2022/01/12 06:20:15;;;;;;;11.45;5.17;;;;;;;-9.14;77.94;101199.34;1723475;81;21441;-39
2022/01/12 06:22:49;;;;;;;11.68;3.98;;;;;;;-9.18;77.87;101198.92;1723397;81;21044;-46
2022/01/12 06:25:16;;;;;;;4.80;3.47;;;;;;;-9.20;77.52;101205.50;1721178;81;21320;-39
2022/01/12 06:27:56;;;;;;;10.68;5.30;;;;;;;-9.27;76.99;101206.96;1728853;81;21031;-37
2022/01/12 06:33:40;;;;;;;9.13;4.58;;;;;;;-9.37;77.09;101222.95;1719017;81;21040;-46
2022/01/12 06:40:56;;;;;;;9.10;3.95;;;;;;;-9.47;75.78;101221.56;1716146;81;21000;-44
2022/01/12 06:47:23;;;;;;;9.95;4.92;;;;;;;-9.57;75.93;101236.27;1725658;81;21001;-45
2022/01/12 06:49:56;;;;;;;6.08;4.03;;;;;;;-9.63;75.17;101227.20;1723518;82;21960;-46
2022/01/12 06:52:23;;;;;;;9.13;4.53;;;;;;;-9.65;75.46;101231.75;1717874;81;21076;-39
2022/01/12 06:54:50;;;;;;;8.85;3.87;;;;;;;-9.63;75.48;101240.75;1732148;81;21474;-39
2022/01/12 06:57:17;;;;;;;6.70;3.50;;;;;;;-9.61;75.75;101244.34;1721131;81;21001;-46
2022/01/12 06:59:44;;;;;;;5.40;3.52;;;;;;;-9.61;76.06;101246.87;1725264;81;21436;-47
2022/01/12 07:02:11;;;;;;;12.07;3.98;;;;;;;-9.60;76.47;101238.53;1728865;81;21599;-46
2022/01/12 07:04:38;;;;;;;7.90;4.10;;;;;;;-9.63;76.20;101243.29;1726308;81;21023;-46
2022/01/12 07:07:05;;;;;;;5.03;3.10;;;;;;;-9.67;76.12;101236.17;1722623;81;21058;-39
2022/01/12 07:09:34;;;;;;;11.10;4.33;;;;;;;-9.74;75.97;101233.44;1719499;81;21028;-38
2022/01/12 07:12:04;;;;;;;8.35;3.90;;;;;;;-9.77;76.21;101240.72;1727807;81;21012;-39
2022/01/12 07:14:34;;;;;;;5.40;3.10;;;;;;;-9.77;76.06;101243.26;1730280;81;20942;-39
2022/01/12 07:17:01;;;;;;;8.43;3.50;;;;;;;-9.77;75.57;101240.72;1720902;81;21487;-46
2022/01/12 07:19:29;;;;;;;7.05;4.00;;;;;;;-9.75;75.31;101240.86;1723800;81;21339;-46
2022/01/12 07:22:32;;;;;;;9.85;4.33;;;;;;;-9.76;75.09;101234.91;1723914;81;21626;-38
2022/01/12 07:49:38;;;;;;;8.78;4.12;;;;;;;-9.59;72.53;101231.81;1719372;81;21329;-38
2022/01/12 07:52:23;;;;;;;9.15;4.25;;;;;;;-9.55;72.66;101227.19;1723057;81;21044;-38
2022/01/12 07:55:01;;;;;;;7.67;4.42;;;;;;;-9.58;72.20;101224.73;1725646;81;21020;-37
2022/01/12 07:57:34;;;;;;;8.35;4.40;;;;;;;-9.67;71.78;101233.26;1722759;81;21045;-38
2022/01/12 08:00:08;;;;;;;12.43;4.95;;;;;;;-9.74;72.69;101234.70;1727435;81;21060;-45
2022/01/12 08:02:59;;;;;;;12.20;5.55;;;;;;;-9.75;72.67;101244.28;1722543;81;21027;-45
2022/01/12 08:06:09;;;;;;;11.65;5.55;;;;;;;-9.73;73.37;101241.92;1719350;81;21426;-45
2022/01/12 08:12:39;;;;;;;7.35;3.95;;;;;;;-9.74;71.90;101246.44;1721563;81;21049;-39
2022/01/12 08:23:45;;;;;;;12.18;5.67;;;;;;;-9.73;71.31;101243.19;1722833;81;21159;-39
2022/01/12 08:27:07;;;;;;;10.65;4.58;;;;;;;-9.67;71.16;101246.30;1720269;81;21425;-46
2022/01/12 08:34:06;;;;;;;14.87;6.58;;;;;;;-9.80;69.97;101231.55;1727744;81;21017;-38
2022/01/12 08:36:33;;;;;;;8.70;4.58;;;;;;;-9.93;70.51;101241.27;1725364;81;21441;-46
2022/01/12 08:39:02;;;;;;;7.53;4.22;;;;;;;-9.98;70.54;101248.80;1730976;81;20994;-38
2022/01/12 08:41:28;;;;;;;4.00;2.25;;;;;;;-10.01;70.88;101254.84;1731087;81;21156;-46
2022/01/12 08:43:55;;;;;;;10.98;5.00;;;;;;;-10.08;69.02;101253.75;1731559;81;21915;-46
2022/01/12 08:46:24;;;;;;;6.42;3.52;;;;;;;-10.14;69.56;101251.52;1727014;81;21501;-38
2022/01/12 08:48:51;;;;;;;11.05;5.15;;;;;;;-10.17;69.46;101246.52;1729867;81;21421;-39
2022/01/12 08:51:18;;;;;;;9.40;4.60;;;;;;;-10.20;69.00;101256.87;1727142;81;21057;-38
2022/01/12 08:53:45;;;;;;;11.12;5.78;;;;;;;-10.22;68.83;101267.20;1697077;83;21483;-39
2022/01/12 08:56:19;;;;;;;7.83;3.95;;;;;;;-10.25;69.15;101255.94;1726042;81;21052;-47
2022/01/12 08:58:52;;;;;;;7.90;4.78;;;;;;;-10.28;68.58;101262.84;1728904;81;21502;-44
2022/01/12 09:01:18;;;;;;;8.48;4.33;;;;;;;-10.31;68.77;101254.08;1725974;81;21917;-45
2022/01/12 09:03:46;;;;;;;7.53;4.35;;;;;;;-10.28;69.62;101270.81;1728753;81;21621;-39
2022/01/12 09:06:15;;;;;;;10.18;4.92;;;;;;;-10.28;68.35;101269.55;1729888;81;21173;-39
2022/01/12 09:09:31;;;;;;;9.55;4.45;;;;;;;-10.31;68.22;101270.53;1728077;81;21045;-39
2022/01/12 09:12:36;;;;;;;11.75;4.53;;;;;;;-10.27;68.05;101268.42;1730609;81;21434;-38
2022/01/12 09:15:16;;;;;;;6.05;3.47;;;;;;;-10.16;67.41;101267.28;1721050;81;21035;-46
2022/01/12 09:18:10;;;;;;;10.23;4.55;;;;;;;-10.09;67.79;101265.48;1737698;80;21533;-38
2022/01/12 09:24:12;;;;;;;5.65;3.40;;;;;;;-10.01;66.02;101253.58;1729701;81;20977;-38
2022/01/12 09:26:56;;;;;;;8.45;4.92;;;;;;;-10.14;65.34;101248.98;1733651;81;21097;-38
2022/01/12 09:29:53;;;;;;;15.43;6.53;;;;;;;-10.22;65.56;101249.86;1730088;81;21013;-38
2022/01/12 09:32:25;;;;;;;16.27;6.75;;;;;;;-10.22;65.92;101244.42;1731015;81;21010;-45
2022/01/12 09:35:21;;;;;;;14.40;7.50;;;;;;;-10.13;65.99;101251.14;1732326;81;21587;-45
2022/01/12 09:38:12;;;;;;;16.90;5.97;;;;;;;-10.09;65.59;101243.96;1725157;81;21066;-38
2022/01/12 09:41:24;;;;;;;14.25;6.37;;;;;;;-10.07;65.18;101231.10;1726497;81;20995;-38
2022/01/12 09:48:49;;;;;;;17.35;7.58;;;;;;;-10.00;65.88;101229.66;1721800;81;21076;-45
2022/01/12 09:56:01;;;;;;;8.95;4.70;;;;;;;-9.91;65.10;101228.41;1723854;81;21025;-45
2022/01/12 09:58:33;;;;;;;15.13;6.50;;;;;;;-9.67;65.65;101218.44;1695289;82;21171;-45
2022/01/12 10:01:01;;;;;;;12.50;4.58;;;;;;;-9.48;65.77;101222.31;1732624;81;21485;-39
2022/01/12 10:03:28;;;;;;;7.08;3.47;;;;;;;-9.36;65.27;101215.85;1727104;81;21013;-45
2022/01/12 10:06:26;;;;;;;10.10;5.30;;;;;;;-9.35;64.10;101222.70;1728783;81;21116;-38
2022/01/12 10:09:15;;;;;;;16.23;5.78;;;;;;;-9.40;64.26;101218.84;1728141;81;21603;-45
2022/01/12 10:12:06;;;;;;;13.08;5.20;;;;;;;-9.39;65.14;101208.88;1726827;81;21048;-46
2022/01/12 10:15:36;;;;;;;10.90;5.85;;;;;;;-9.32;64.67;101209.44;1728391;81;22129;-45
2022/01/12 10:18:52;;;;;;;14.20;5.95;;;;;;;-9.32;64.63;101206.91;1730166;81;21727;-45
2022/01/12 10:21:49;;;;;;;26.55;9.18;;;;;;;-9.30;64.61;101202.48;1727647;81;21649;-45
2022/01/12 10:25:18;;;;;;;9.08;3.22;;;;;;;-9.27;65.13;101199.36;1727518;81;21151;-37
2022/01/12 10:27:51;;;;;;;8.03;4.80;;;;;;;-9.24;64.26;101214.83;1722270;81;21064;-38
2022/01/12 10:30:34;;;;;;;8.13;4.22;;;;;;;-9.29;64.35;101200.45;1725843;81;21064;-45
2022/01/12 10:33:25;;;;;;;10.55;5.42;;;;;;;-9.30;64.46;101199.05;1732402;81;21335;-38
2022/01/12 10:36:06;;;;;;;9.28;5.30;;;;;;;-9.26;64.93;101196.06;1732527;80;21034;-38
2022/01/12 10:38:40;;;;;;;15.18;6.90;;;;;;;-9.28;64.64;101183.22;1712833;81;21622;-38
2022/01/12 10:41:12;;;;;;;10.10;5.95;;;;;;;-9.33;64.91;101189.54;1735148;81;21043;-39
2022/01/12 10:43:44;;;;;;;12.18;6.15;;;;;;;-9.34;65.01;101187.73;1738379;81;21068;-39
2022/01/12 10:46:17;;;;;;;11.78;6.53;;;;;;;-9.37;64.84;101180.23;1728872;81;21001;-37
2022/01/12 10:48:53;;;;;;;11.18;6.00;;;;;;;-9.41;65.26;101182.84;1733616;81;20984;-37
2022/01/12 10:51:28;;;;;;;12.10;5.67;;;;;;;-9.42;65.52;101182.34;1741966;81;21630;-45
2022/01/12 10:54:02;;;;;;;12.55;5.58;;;;;;;-9.41;66.52;101181.58;1738544;81;21603;-45
2022/01/12 10:56:29;;;;;;;18.10;6.12;;;;;;;-9.39;66.92;101180.10;1737609;81;21045;-45
2022/01/12 10:58:57;;;;;;;11.43;5.35;;;;;;;-9.33;66.93;101179.40;1706490;82;21026;-45
2022/01/12 11:01:49;;;;;;;9.53;4.03;;;;;;;-9.28;67.46;101176.00;1709307;82;21399;-45
2022/01/12 11:08:02;;;;;;;7.33;3.80;;;;;;;-9.39;66.35;101189.86;1675497;82;21070;-46
2022/01/12 11:15:00;;;;;;;12.18;5.45;;;;;;;-9.49;67.00;101178.72;1713705;82;21033;-38
2022/01/12 11:21:52;;;;;;;6.60;3.22;;;;;;;-9.64;66.85;101184.50;1674519;83;21575;-45
2022/01/12 11:24:27;;;;;;;9.60;4.03;;;;;;;-9.74;67.28;101182.77;1711612;82;20952;-45
2022/01/12 11:26:53;;;;;;;17.80;5.62;;;;;;;-9.73;67.40;101183.66;1729015;82;21559;-39
2022/01/12 11:29:34;;;;;;;12.23;5.85;;;;;;;-9.71;66.98;101181.77;1712354;82;21001;-38
2022/01/12 11:32:09;;;;;;;17.48;7.25;;;;;;;-9.69;66.48;101180.64;1715071;82;21034;-38
2022/01/12 11:34:37;;;;;;;19.92;8.30;;;;;;;-9.70;66.32;101178.48;1725926;82;21020;-45
2022/01/12 11:37:17;;;;;;;14.33;6.37;;;;;;;-9.65;66.68;101179.81;1714458;82;21686;-44
2022/01/12 11:39:49;;;;;;;13.55;6.05;;;;;;;-9.56;67.08;101174.73;1725447;82;21354;-44
2022/01/12 11:42:17;;;;;;;10.40;5.20;;;;;;;-9.45;66.59;101173.17;1723317;82;21054;-45
2022/01/12 11:45:09;;;;;;;11.48;5.87;;;;;;;-9.41;66.42;101168.53;1709129;82;21531;-46
2022/01/12 11:47:46;;;;;;;6.05;3.67;;;;;;;-9.37;66.63;101172.63;1723097;82;21062;-39
2022/01/12 11:53:54;;;;;;;7.00;3.75;;;;;;;-9.36;66.50;101165.54;1647426;85;21599;-47
2022/01/12 11:56:24;;;;;;;7.33;4.22;;;;;;;-9.43;66.33;101162.82;1699166;81;21099;-38
2022/01/12 11:58:58;;;;;;;6.87;3.33;;;;;;;-9.47;66.72;101155.67;1714093;81;21034;-38
2022/01/12 12:01:45;;;;;;;10.63;4.10;;;;;;;-9.46;67.50;101155.81;1715284;81;21059;-40
2022/01/12 12:04:25;;;;;;;9.28;5.10;;;;;;;-9.36;67.52;101163.89;1717463;81;21532;-44
2022/01/12 12:07:13;;;;;;;12.28;4.60;;;;;;;-9.32;66.64;101172.31;1616203;86;21607;-36
2022/01/12 12:09:44;;;;;;;6.95;3.55;;;;;;;-9.34;67.04;101169.09;1621180;86;20986;-37
2022/01/12 12:12:19;;;;;;;8.70;3.60;;;;;;;-9.33;67.18;101171.80;1625050;86;21507;-46
2022/01/12 12:15:02;;;;;;;9.23;3.35;;;;;;;-9.30;67.00;101172.44;1620315;86;21552;-46
2022/01/12 12:18:04;;;;;;;10.78;4.33;;;;;;;-9.32;66.70;101168.89;1627041;86;21580;-45
2022/01/12 12:20:41;;;;;;;12.88;4.80;;;;;;;-9.32;67.16;101171.04;1627781;86;21368;-37
2022/01/12 12:23:14;;;;;;;8.88;4.85;;;;;;;-9.31;67.12;101179.53;1622378;86;21077;-39
2022/01/12 12:25:40;;;;;;;;;;;;;;;-9.33;67.31;101178.13;1644489;86;21020;-39
2022/01/12 12:28:19;;;;;;;13.85;5.45;;;;;;;-9.32;67.56;101178.64;1637999;85;20116;-40
2022/01/12 12:30:57;;;;;;;5.55;3.85;;;;;;;-9.37;67.00;101173.52;1641439;86;21008;-46
2022/01/12 12:34:04;;;;;;;6.97;3.98;;;;;;;-9.42;67.36;101175.63;1611892;87;21061;-46
2022/01/12 12:36:31;;;;;;;10.63;4.72;;;;;;;-9.41;67.37;101180.31;1634543;86;21619;-41
2022/01/12 12:39:08;;;;;;;10.32;4.33;;;;;;;-9.47;66.75;101179.37;1610737;87;21444;-47
2022/01/12 12:41:44;;;;;;;9.98;4.30;;;;;;;-9.50;67.66;101180.75;1586939;88;21107;-39
2022/01/12 12:44:46;;;;;;;9.80;4.67;;;;;;;-9.50;67.71;101184.17;1666749;83;21435;-46
2022/01/12 12:47:16;;;;;;;6.80;3.20;;;;;;;-9.51;67.77;101187.80;1670334;84;21067;-39
2022/01/12 12:49:52;;;;;;;4.45;3.15;;;;;;;-9.55;67.94;101189.18;1666907;84;21020;-48
2022/01/12 12:53:08;;;;;;;6.53;3.92;;;;;;;-9.64;67.29;101194.64;1667301;83;21590;-39
2022/01/12 12:55:44;;;;;;;7.50;3.10;;;;;;;-9.78;67.87;101202.22;1662055;84;21014;-38
2022/01/12 12:58:36;;;;;;;9.30;3.10;;;;;;;-9.88;68.00;101196.13;1653017;85;21096;-37
2022/01/12 13:01:11;;;;;;;9.30;2.75;;;;;;;-9.97;67.88;101192.00;1720056;82;21053;-37
2022/01/12 13:03:39;;;;;;;7.20;4.10;;;;;;;-10.06;68.23;101192.75;1656860;85;21049;-46
2022/01/12 13:06:59;;;;;;;10.28;4.90;;;;;;;-10.13;68.79;101195.45;1652835;85;21697;-38
2022/01/12 13:09:57;;;;;;;10.23;3.58;;;;;;;-10.14;69.50;101198.73;1654184;85;20999;-40
2022/01/12 13:12:24;;;;;;;9.00;4.80;;;;;;;-10.09;69.92;101203.45;1713992;82;21018;-39
2022/01/12 13:14:50;;;;;;;8.13;3.17;;;;;;;-10.07;70.00;101196.03;1709250;82;21260;-40
2022/01/12 13:17:31;;;;;;;10.08;4.45;;;;;;;-10.07;69.53;101196.03;1711592;82;21445;-41
2022/01/12 13:22:28;;;;;;;9.00;5.00;;;;;;;-10.09;69.82;101194.59;1712523;82;21668;-39
2022/01/12 13:24:58;;;;;;;13.18;5.28;;;;;;;-10.05;69.62;101193.27;1713807;82;20962;-40
2022/01/12 13:27:25;;;;;;;8.95;4.10;;;;;;;-10.05;69.53;101189.47;1712472;82;21110;-40
2022/01/12 13:29:52;;;;;;;8.08;4.05;;;;;;;-10.07;69.73;101189.70;1679411;83;21446;-38
2022/01/12 13:32:19;;;;;;;12.80;5.35;;;;;;;-10.10;70.06;101192.81;1657931;85;21019;-40
2022/01/12 13:35:03;;;;;;;13.65;5.60;;;;;;;-10.13;70.06;101186.59;1677217;84;21494;-40
2022/01/12 13:37:31;;;;;;;9.83;5.70;;;;;;;-10.15;70.37;101191.48;1658283;84;21675;-39
2022/01/12 13:40:11;;;;;;;10.50;3.72;;;;;;;-10.16;70.32;101189.70;1664177;85;21031;-43
2022/01/12 13:42:53;;;;;;;11.73;5.80;;;;;;;-10.22;69.85;101200.13;1658080;85;21090;-40
2022/01/12 13:45:27;;;;;;;6.07;3.60;;;;;;;-10.27;70.03;101194.14;1657960;85;20967;-47
2022/01/12 13:47:58;;;;;;;11.65;5.20;;;;;;;-10.32;70.17;101196.59;1664684;85;21104;-40
2022/01/12 13:50:36;;;;;;;7.70;3.58;;;;;;;-10.34;70.56;101198.09;1665271;85;21014;-47
2022/01/12 13:53:00;;;;;;;58.95;5.90;;;;;;;-10.35;70.37;101193.41;1682444;83;21065;-47
2022/01/12 13:55:27;;;;;;;13.72;5.62;;;;;;;-10.36;70.34;101200.86;1740744;81;21878;-47
2022/01/12 13:58:06;;;;;;;27.95;9.78;;;;;;;-10.37;70.33;101197.81;1731594;81;21016;-39
2022/01/12 14:00:35;;;;;;;21.12;9.45;;;;;;;-10.38;70.46;101201.06;1740684;81;20990;-40
2022/01/12 14:03:14;;;;;;;24.63;10.75;;;;;;;-10.41;70.59;101204.20;1713978;81;21061;-45
2022/01/12 14:05:41;;;;;;;40.00;13.70;;;;;;;-10.42;70.27;101197.73;1727905;81;21340;-38
2022/01/12 14:08:14;;;;;;;35.20;12.37;;;;;;;-10.43;70.15;101192.16;1724792;81;21027;-46
2022/01/12 14:10:54;;;;;;;47.53;16.00;;;;;;;-10.46;69.78;101192.74;1745984;81;21547;-38
2022/01/12 14:13:28;;;;;;;17.75;8.98;;;;;;;-10.48;69.99;101201.83;1760584;81;21033;-39
2022/01/12 14:16:08;;;;;;;64.20;20.02;;;;;;;-10.49;69.94;101205.11;1760497;81;21053;-46
2022/01/12 14:18:34;;;;;;;52.38;15.18;;;;;;;-10.50;70.36;101202.03;1755220;81;21510;-46
2022/01/12 14:21:18;;;;;;;30.95;10.88;;;;;;;-10.51;70.12;101202.41;1740468;81;21559;-46
2022/01/12 14:23:46;;;;;;;38.48;12.78;;;;;;;-10.48;70.58;101200.19;1710814;81;20982;-46
2022/01/12 14:26:26;;;;;;;10.68;6.10;;;;;;;-10.46;70.39;101205.02;1750436;81;21103;-39
2022/01/12 14:28:53;;;;;;;10.80;5.95;;;;;;;-10.45;70.32;101203.37;1731533;81;21054;-39
2022/01/12 14:31:20;;;;;;;14.25;6.35;;;;;;;-10.47;70.48;101202.34;1735078;81;21580;-46
2022/01/12 14:33:47;;;;;;;12.40;5.95;;;;;;;-10.50;70.60;101214.31;1761634;81;21175;-46
2022/01/12 14:36:15;;;;;;;14.47;7.97;;;;;;;-10.52;70.83;101215.81;1761986;81;21112;-46
2022/01/12 14:38:42;;;;;;;14.23;6.70;;;;;;;-10.54;70.85;101210.09;1761828;81;21054;-46
2022/01/12 14:41:09;;;;;;;15.13;6.70;;;;;;;-10.55;70.98;101214.27;1745944;81;21035;-46
